sensor_id;sensor_type;location;lat;lon;timestamp;pressure;altitude;pressure_sealevel;temperature;humidity
20350;BME280;10332;50.208;18.988;2022-09-01T00:00:07;98404.03;;;16.29;77.72
20350;BME280;10332;50.208;18.988;2022-09-01T00:02:55;98395.94;;;16.21;78.48
20350;BME280;10332;50.208;18.988;2022-09-01T00:05:22;98388.31;;;16.18;78.69
20350;BME280;10332;50.208;18.988;2022-09-01T00:07:50;98392.75;;;16.17;78.87
20350;BME280;10332;50.208;18.988;2022-09-01T00:10:17;98387.72;;;16.14;78.87
20350;BME280;10332;50.208;18.988;2022-09-01T00:12:44;98391.84;;;16.07;79.62
20350;BME280;10332;50.208;18.988;2022-09-01T00:15:13;98386.34;;;16.10;79.00
20350;BME280;10332;50.208;18.988;2022-09-01T00:17:40;98378.31;;;16.12;78.86
20350;BME280;10332;50.208;18.988;2022-09-01T00:20:10;98388.19;;;15.99;79.91
20350;BME280;10332;50.208;18.988;2022-09-01T00:22:40;98387.38;;;15.98;79.98
20350;BME280;10332;50.208;18.988;2022-09-01T00:25:08;98390.00;;;15.98;79.62
20350;BME280;10332;50.208;18.988;2022-09-01T00:27:35;98393.47;;;15.99;79.50
20350;BME280;10332;50.208;18.988;2022-09-01T00:30:04;98388.19;;;15.99;79.58
20350;BME280;10332;50.208;18.988;2022-09-01T00:32:31;98389.16;;;15.98;79.39
20350;BME280;10332;50.208;18.988;2022-09-01T00:34:59;98386.94;;;15.93;79.96
20350;BME280;10332;50.208;18.988;2022-09-01T00:37:26;98386.50;;;15.88;80.45
20350;BME280;10332;50.208;18.988;2022-09-01T00:39:54;98388.69;;;15.83;80.83
20350;BME280;10332;50.208;18.988;2022-09-01T00:42:22;98385.09;;;15.84;80.67
20350;BME280;10332;50.208;18.988;2022-09-01T00:44:49;98383.66;;;15.80;80.41
20350;BME280;10332;50.208;18.988;2022-09-01T00:47:17;98377.44;;;15.81;80.47
20350;BME280;10332;50.208;18.988;2022-09-01T00:49:48;98385.34;;;15.81;80.45
20350;BME280;10332;50.208;18.988;2022-09-01T00:52:25;98375.03;;;15.68;81.33
20350;BME280;10332;50.208;18.988;2022-09-01T00:54:59;98378.94;;;15.74;81.05
20350;BME280;10332;50.208;18.988;2022-09-01T00:57:28;98367.69;;;15.72;81.07
20350;BME280;10332;50.208;18.988;2022-09-01T01:00:04;98377.53;;;15.70;80.70
20350;BME280;10332;50.208;18.988;2022-09-01T01:02:32;98370.59;;;15.69;81.15
20350;BME280;10332;50.208;18.988;2022-09-01T01:05:00;98370.47;;;15.70;80.95
20350;BME280;10332;50.208;18.988;2022-09-01T01:07:29;98377.09;;;15.65;81.29
20350;BME280;10332;50.208;18.988;2022-09-01T01:09:56;98369.19;;;15.65;80.98
20350;BME280;10332;50.208;18.988;2022-09-01T01:12:24;98368.00;;;15.57;81.79
20350;BME280;10332;50.208;18.988;2022-09-01T01:14:56;98375.44;;;15.64;81.43
20350;BME280;10332;50.208;18.988;2022-09-01T01:17:24;98366.81;;;15.61;81.33
20350;BME280;10332;50.208;18.988;2022-09-01T01:19:54;98370.19;;;15.52;82.16
20350;BME280;10332;50.208;18.988;2022-09-01T01:23:09;98364.91;;;15.52;81.64
20350;BME280;10332;50.208;18.988;2022-09-01T01:25:55;98370.44;;;15.49;82.26
20350;BME280;10332;50.208;18.988;2022-09-01T01:28:29;98378.00;;;15.43;82.11
20350;BME280;10332;50.208;18.988;2022-09-01T01:31:12;98370.63;;;15.37;82.73
20350;BME280;10332;50.208;18.988;2022-09-01T01:33:53;98375.03;;;15.36;82.91
20350;BME280;10332;50.208;18.988;2022-09-01T01:36:31;98373.16;;;15.38;82.49
20350;BME280;10332;50.208;18.988;2022-09-01T01:39:14;98378.19;;;15.30;82.75
20350;BME280;10332;50.208;18.988;2022-09-01T01:41:44;98380.13;;;15.28;83.15
20350;BME280;10332;50.208;18.988;2022-09-01T01:44:23;98382.16;;;15.24;82.93
20350;BME280;10332;50.208;18.988;2022-09-01T01:46:55;98378.56;;;15.25;82.60
20350;BME280;10332;50.208;18.988;2022-09-01T01:49:26;98380.63;;;15.22;83.02
20350;BME280;10332;50.208;18.988;2022-09-01T01:51:55;98378.84;;;15.22;83.17
20350;BME280;10332;50.208;18.988;2022-09-01T01:54:25;98380.75;;;15.20;82.99
20350;BME280;10332;50.208;18.988;2022-09-01T01:56:59;98386.25;;;15.17;83.26
20350;BME280;10332;50.208;18.988;2022-09-01T01:59:26;98372.03;;;15.20;82.95
20350;BME280;10332;50.208;18.988;2022-09-01T02:01:56;98377.53;;;15.17;83.48
20350;BME280;10332;50.208;18.988;2022-09-01T02:04:24;98373.00;;;15.19;83.25
20350;BME280;10332;50.208;18.988;2022-09-01T02:06:52;98373.00;;;15.19;83.14
20350;BME280;10332;50.208;18.988;2022-09-01T02:09:20;98375.50;;;15.20;83.26
20350;BME280;10332;50.208;18.988;2022-09-01T02:11:49;98371.69;;;15.13;83.84
20350;BME280;10332;50.208;18.988;2022-09-01T02:14:21;98373.50;;;15.13;83.60
20350;BME280;10332;50.208;18.988;2022-09-01T02:16:49;98372.06;;;15.09;83.60
20350;BME280;10332;50.208;18.988;2022-09-01T02:19:16;98367.06;;;15.05;83.87
20350;BME280;10332;50.208;18.988;2022-09-01T02:21:47;98369.56;;;15.07;83.99
20350;BME280;10332;50.208;18.988;2022-09-01T02:24:22;98367.28;;;15.14;83.25
20350;BME280;10332;50.208;18.988;2022-09-01T02:26:58;98367.97;;;15.16;82.92
20350;BME280;10332;50.208;18.988;2022-09-01T02:29:26;98365.97;;;15.08;83.56
20350;BME280;10332;50.208;18.988;2022-09-01T02:31:56;98365.84;;;15.10;83.63
20350;BME280;10332;50.208;18.988;2022-09-01T02:34:25;98367.91;;;15.06;83.93
20350;BME280;10332;50.208;18.988;2022-09-01T02:36:55;98361.53;;;15.09;83.70
20350;BME280;10332;50.208;18.988;2022-09-01T02:39:28;98370.59;;;15.16;83.30
20350;BME280;10332;50.208;18.988;2022-09-01T02:41:56;98369.19;;;15.12;83.58
20350;BME280;10332;50.208;18.988;2022-09-01T02:44:24;98366.81;;;15.09;83.99
20350;BME280;10332;50.208;18.988;2022-09-01T02:46:53;98372.06;;;15.09;83.80
20350;BME280;10332;50.208;18.988;2022-09-01T02:49:23;98372.31;;;15.05;84.07
20350;BME280;10332;50.208;18.988;2022-09-01T02:51:57;98370.41;;;15.08;83.96
20350;BME280;10332;50.208;18.988;2022-09-01T02:54:28;98363.72;;;15.03;84.30
20350;BME280;10332;50.208;18.988;2022-09-01T02:56:57;98360.72;;;15.08;84.02
20350;BME280;10332;50.208;18.988;2022-09-01T02:59:27;98362.06;;;15.02;84.46
20350;BME280;10332;50.208;18.988;2022-09-01T03:01:56;98352.03;;;14.96;85.00
20350;BME280;10332;50.208;18.988;2022-09-01T03:07:10;98355.16;;;15.01;84.58
20350;BME280;10332;50.208;18.988;2022-09-01T03:09:39;98354.66;;;14.96;85.06
20350;BME280;10332;50.208;18.988;2022-09-01T03:12:08;98351.56;;;15.02;84.32
20350;BME280;10332;50.208;18.988;2022-09-01T03:14:36;98351.34;;;14.94;85.13
20350;BME280;10332;50.208;18.988;2022-09-01T03:17:04;98355.97;;;15.02;84.52
20350;BME280;10332;50.208;18.988;2022-09-01T03:19:31;98356.81;;;15.02;84.33
20350;BME280;10332;50.208;18.988;2022-09-01T03:22:08;98358.97;;;14.97;84.59
20350;BME280;10332;50.208;18.988;2022-09-01T03:24:35;98364.50;;;14.94;84.96
20350;BME280;10332;50.208;18.988;2022-09-01T03:27:03;98360.06;;;14.95;84.89
20350;BME280;10332;50.208;18.988;2022-09-01T03:29:30;98364.72;;;14.91;85.32
20350;BME280;10332;50.208;18.988;2022-09-01T03:31:58;98360.75;;;14.97;84.70
20350;BME280;10332;50.208;18.988;2022-09-01T03:34:25;98369.22;;;15.00;84.30
20350;BME280;10332;50.208;18.988;2022-09-01T03:36:53;98368.66;;;14.97;84.29
20350;BME280;10332;50.208;18.988;2022-09-01T03:39:21;98367.56;;;14.99;84.30
20350;BME280;10332;50.208;18.988;2022-09-01T03:41:49;98372.81;;;14.99;84.42
20350;BME280;10332;50.208;18.988;2022-09-01T03:44:16;98371.75;;;15.02;84.21
20350;BME280;10332;50.208;18.988;2022-09-01T03:46:44;98374.63;;;14.99;84.14
20350;BME280;10332;50.208;18.988;2022-09-01T03:49:11;98364.50;;;14.94;84.21
20350;BME280;10332;50.208;18.988;2022-09-01T03:51:51;98373.09;;;14.96;84.11
20350;BME280;10332;50.208;18.988;2022-09-01T03:54:22;98365.44;;;14.93;84.06
20350;BME280;10332;50.208;18.988;2022-09-01T03:56:54;98376.09;;;14.92;84.28
20350;BME280;10332;50.208;18.988;2022-09-01T03:59:22;98372.16;;;14.86;84.65
20350;BME280;10332;50.208;18.988;2022-09-01T04:01:51;98374.66;;;14.88;84.60
20350;BME280;10332;50.208;18.988;2022-09-01T04:04:19;98375.00;;;14.94;84.09
20350;BME280;10332;50.208;18.988;2022-09-01T04:06:47;98378.72;;;14.92;84.33
20350;BME280;10332;50.208;18.988;2022-09-01T04:09:15;98382.19;;;14.92;84.30
20350;BME280;10332;50.208;18.988;2022-09-01T04:11:43;98378.59;;;14.93;84.59
20350;BME280;10332;50.208;18.988;2022-09-01T04:14:13;98384.44;;;14.97;84.28
20350;BME280;10332;50.208;18.988;2022-09-01T04:16:43;98382.75;;;14.96;84.29
20350;BME280;10332;50.208;18.988;2022-09-01T04:19:35;98383.94;;;15.03;83.65
20350;BME280;10332;50.208;18.988;2022-09-01T04:22:05;98386.19;;;15.08;83.64
20350;BME280;10332;50.208;18.988;2022-09-01T04:24:34;98391.31;;;15.09;83.76
20350;BME280;10332;50.208;18.988;2022-09-01T04:27:02;98380.16;;;15.17;83.64
20350;BME280;10332;50.208;18.988;2022-09-01T04:29:30;98389.63;;;15.19;83.66
20350;BME280;10332;50.208;18.988;2022-09-01T04:32:08;98404.88;;;15.25;83.50
20350;BME280;10332;50.208;18.988;2022-09-01T04:34:39;98390.00;;;15.36;83.22
20350;BME280;10332;50.208;18.988;2022-09-01T04:37:18;98391.03;;;15.44;82.71
20350;BME280;10332;50.208;18.988;2022-09-01T04:39:53;98396.50;;;15.52;82.44
20350;BME280;10332;50.208;18.988;2022-09-01T04:42:26;98396.25;;;15.55;81.97
20350;BME280;10332;50.208;18.988;2022-09-01T04:44:56;98396.81;;;15.59;81.77
20350;BME280;10332;50.208;18.988;2022-09-01T04:47:25;98401.75;;;15.64;81.63
20350;BME280;10332;50.208;18.988;2022-09-01T04:50:05;98396.91;;;15.69;81.56
20350;BME280;10332;50.208;18.988;2022-09-01T04:52:44;98403.34;;;15.76;81.21
20350;BME280;10332;50.208;18.988;2022-09-01T04:55:14;98393.97;;;15.83;81.26
20350;BME280;10332;50.208;18.988;2022-09-01T04:57:46;98396.47;;;15.84;81.04
20350;BME280;10332;50.208;18.988;2022-09-01T05:00:19;98397.91;;;15.98;80.75
20350;BME280;10332;50.208;18.988;2022-09-01T05:02:56;98391.00;;;16.07;80.63
20350;BME280;10332;50.208;18.988;2022-09-01T05:05:43;98389.66;;;16.12;79.99
20350;BME280;10332;50.208;18.988;2022-09-01T05:08:17;98396.22;;;16.18;79.62
20350;BME280;10332;50.208;18.988;2022-09-01T05:10:52;98391.38;;;16.23;79.62
20350;BME280;10332;50.208;18.988;2022-09-01T05:13:23;98388.72;;;16.23;79.67
20350;BME280;10332;50.208;18.988;2022-09-01T05:16:06;98394.19;;;16.31;79.35
20350;BME280;10332;50.208;18.988;2022-09-01T05:18:44;98390.47;;;16.43;78.85
20350;BME280;10332;50.208;18.988;2022-09-01T05:21:11;98392.84;;;16.46;78.67
20350;BME280;10332;50.208;18.988;2022-09-01T05:23:45;98388.28;;;16.49;78.61
20350;BME280;10332;50.208;18.988;2022-09-01T05:26:18;98391.38;;;16.63;78.33
20350;BME280;10332;50.208;18.988;2022-09-01T05:28:58;98387.97;;;16.72;77.74
20350;BME280;10332;50.208;18.988;2022-09-01T05:31:29;98387.97;;;16.82;77.69
20350;BME280;10332;50.208;18.988;2022-09-01T05:34:01;98396.03;;;16.90;76.97
20350;BME280;10332;50.208;18.988;2022-09-01T05:36:30;98391.03;;;16.97;76.68
20350;BME280;10332;50.208;18.988;2022-09-01T05:39:00;98389.66;;;17.02;76.31
20350;BME280;10332;50.208;18.988;2022-09-01T05:41:28;98390.50;;;17.13;76.41
20350;BME280;10332;50.208;18.988;2022-09-01T05:43:55;98386.47;;;17.18;76.18
20350;BME280;10332;50.208;18.988;2022-09-01T05:46:27;98387.59;;;17.25;75.62
20350;BME280;10332;50.208;18.988;2022-09-01T05:48:56;98390.47;;;17.32;75.45
20350;BME280;10332;50.208;18.988;2022-09-01T05:51:26;98389.09;;;17.38;75.35
20350;BME280;10332;50.208;18.988;2022-09-01T05:54:20;98393.13;;;17.42;75.19
20350;BME280;10332;50.208;18.988;2022-09-01T05:56:49;98398.81;;;17.47;74.70
20350;BME280;10332;50.208;18.988;2022-09-01T05:59:16;98388.66;;;17.42;74.31
20350;BME280;10332;50.208;18.988;2022-09-01T06:01:53;98392.28;;;17.31;74.10
20350;BME280;10332;50.208;18.988;2022-09-01T06:04:22;98396.88;;;17.29;74.11
20350;BME280;10332;50.208;18.988;2022-09-01T06:06:52;98392.16;;;17.33;73.84
20350;BME280;10332;50.208;18.988;2022-09-01T06:09:39;98397.03;;;17.38;73.40
20350;BME280;10332;50.208;18.988;2022-09-01T06:12:08;98399.66;;;17.38;73.00
20350;BME280;10332;50.208;18.988;2022-09-01T06:14:46;98395.50;;;17.35;72.13
20350;BME280;10332;50.208;18.988;2022-09-01T06:17:19;98393.09;;;17.51;71.86
20350;BME280;10332;50.208;18.988;2022-09-01T06:19:54;98405.22;;;17.73;71.71
20350;BME280;10332;50.208;18.988;2022-09-01T06:22:26;98401.53;;;17.94;71.33
20350;BME280;10332;50.208;18.988;2022-09-01T06:24:55;98402.06;;;17.97;69.08
20350;BME280;10332;50.208;18.988;2022-09-01T06:27:28;98407.03;;;18.20;68.69
20350;BME280;10332;50.208;18.988;2022-09-01T06:29:56;98402.72;;;18.83;67.02
20350;BME280;10332;50.208;18.988;2022-09-01T06:32:24;98405.22;;;20.00;62.99
20350;BME280;10332;50.208;18.988;2022-09-01T06:34:53;98407.13;;;20.92;59.65
20350;BME280;10332;50.208;18.988;2022-09-01T06:37:22;98410.16;;;22.19;54.43
20350;BME280;10332;50.208;18.988;2022-09-01T06:39:49;98404.78;;;23.14;51.14
20350;BME280;10332;50.208;18.988;2022-09-01T06:42:17;98416.53;;;23.88;48.65
20350;BME280;10332;50.208;18.988;2022-09-01T06:44:45;98422.81;;;24.62;47.51
20350;BME280;10332;50.208;18.988;2022-09-01T06:47:13;98420.59;;;25.17;45.92
20350;BME280;10332;50.208;18.988;2022-09-01T06:49:42;98424.09;;;25.39;44.32
20350;BME280;10332;50.208;18.988;2022-09-01T06:52:09;98427.41;;;25.62;43.86
20350;BME280;10332;50.208;18.988;2022-09-01T06:54:39;98429.81;;;26.00;42.67
20350;BME280;10332;50.208;18.988;2022-09-01T06:57:10;98433.91;;;26.30;41.57
20350;BME280;10332;50.208;18.988;2022-09-01T06:59:57;98438.19;;;27.01;40.45
20350;BME280;10332;50.208;18.988;2022-09-01T07:02:24;98433.03;;;27.67;39.46
20350;BME280;10332;50.208;18.988;2022-09-01T07:05:13;98440.25;;;29.04;37.61
20350;BME280;10332;50.208;18.988;2022-09-01T07:08:06;98440.50;;;31.44;34.55
20350;BME280;10332;50.208;18.988;2022-09-01T07:10:49;98454.31;;;33.46;30.74
20350;BME280;10332;50.208;18.988;2022-09-01T07:13:36;98461.06;;;34.61;28.20
20350;BME280;10332;50.208;18.988;2022-09-01T07:16:28;98462.06;;;35.70;26.66
20350;BME280;10332;50.208;18.988;2022-09-01T07:19:01;98462.66;;;36.09;25.80
20350;BME280;10332;50.208;18.988;2022-09-01T07:21:30;98466.94;;;34.20;27.70
20350;BME280;10332;50.208;18.988;2022-09-01T07:24:18;98460.56;;;33.64;28.39
20350;BME280;10332;50.208;18.988;2022-09-01T07:26:46;98457.13;;;33.68;28.03
20350;BME280;10332;50.208;18.988;2022-09-01T07:29:18;98462.16;;;32.20;29.81
20350;BME280;10332;50.208;18.988;2022-09-01T07:31:46;98462.72;;;31.99;29.61
20350;BME280;10332;50.208;18.988;2022-09-01T07:34:33;98460.97;;;32.75;28.45
20350;BME280;10332;50.208;18.988;2022-09-01T07:37:06;98464.59;;;32.92;29.02
20350;BME280;10332;50.208;18.988;2022-09-01T07:39:53;98459.41;;;33.31;28.78
20350;BME280;10332;50.208;18.988;2022-09-01T07:42:22;98461.53;;;33.57;28.75
20350;BME280;10332;50.208;18.988;2022-09-01T07:45:11;98464.72;;;35.92;26.09
20350;BME280;10332;50.208;18.988;2022-09-01T07:47:56;98470.06;;;39.56;22.57
20350;BME280;10332;50.208;18.988;2022-09-01T07:50:29;98470.41;;;42.40;20.07
20350;BME280;10332;50.208;18.988;2022-09-01T07:53:27;98485.84;;;44.27;17.61
20350;BME280;10332;50.208;18.988;2022-09-01T07:56:03;98482.19;;;45.46;17.10
20350;BME280;10332;50.208;18.988;2022-09-01T07:58:33;98482.84;;;45.95;15.68
20350;BME280;10332;50.208;18.988;2022-09-01T08:01:06;98476.41;;;46.46;15.11
20350;BME280;10332;50.208;18.988;2022-09-01T08:03:34;98477.53;;;47.13;14.77
20350;BME280;10332;50.208;18.988;2022-09-01T08:06:09;98489.03;;;48.19;14.18
20350;BME280;10332;50.208;18.988;2022-09-01T08:08:38;98499.16;;;48.36;13.51
20350;BME280;10332;50.208;18.988;2022-09-01T08:11:07;98484.03;;;49.19;13.58
20350;BME280;10332;50.208;18.988;2022-09-01T08:13:36;98487.38;;;49.25;12.64
20350;BME280;10332;50.208;18.988;2022-09-01T08:16:09;98482.88;;;49.72;12.44
20350;BME280;10332;50.208;18.988;2022-09-01T08:18:45;98478.59;;;47.92;13.30
20350;BME280;10332;50.208;18.988;2022-09-01T08:21:18;98482.94;;;49.48;12.50
20350;BME280;10332;50.208;18.988;2022-09-01T08:23:51;98494.47;;;51.13;12.32
20350;BME280;10332;50.208;18.988;2022-09-01T08:26:24;98486.00;;;49.99;12.79
20350;BME280;10332;50.208;18.988;2022-09-01T08:28:53;98490.47;;;52.99;11.47
20350;BME280;10332;50.208;18.988;2022-09-01T08:31:23;98490.59;;;43.68;16.19
20350;BME280;10332;50.208;18.988;2022-09-01T08:33:51;98480.31;;;39.30;19.36
20350;BME280;10332;50.208;18.988;2022-09-01T08:36:19;98470.91;;;35.87;22.83
20350;BME280;10332;50.208;18.988;2022-09-01T08:38:51;98472.34;;;39.39;19.72
20350;BME280;10332;50.208;18.988;2022-09-01T08:41:48;98463.91;;;38.55;20.38
20350;BME280;10332;50.208;18.988;2022-09-01T08:44:43;98466.16;;;35.45;23.04
20350;BME280;10332;50.208;18.988;2022-09-01T08:47:18;98470.16;;;31.32;27.20
20350;BME280;10332;50.208;18.988;2022-09-01T08:49:59;98464.22;;;30.07;28.98
20350;BME280;10332;50.208;18.988;2022-09-01T08:52:37;98466.66;;;39.75;19.90
20350;BME280;10332;50.208;18.988;2022-09-01T08:55:34;98474.31;;;46.73;15.00
20350;BME280;10332;50.208;18.988;2022-09-01T08:58:05;98477.09;;;50.85;12.76
20350;BME280;10332;50.208;18.988;2022-09-01T09:00:41;98487.31;;;53.57;10.74
20350;BME280;10332;50.208;18.988;2022-09-01T09:04:02;98500.69;;;55.69;9.61
20350;BME280;10332;50.208;18.988;2022-09-01T09:09:19;98490.75;;;58.09;8.31
20350;BME280;10332;50.208;18.988;2022-09-01T09:12:38;98488.13;;;58.85;7.36
20350;BME280;10332;50.208;18.988;2022-09-01T09:16:23;98492.56;;;59.84;7.37
20350;BME280;10332;50.208;18.988;2022-09-01T09:18:59;98492.59;;;61.65;6.78
20350;BME280;10332;50.208;18.988;2022-09-01T09:21:39;98498.34;;;62.79;6.63
20350;BME280;10332;50.208;18.988;2022-09-01T09:26:51;98476.91;;;60.57;6.55
20350;BME280;10332;50.208;18.988;2022-09-01T09:29:19;98479.69;;;62.00;6.12
20350;BME280;10332;50.208;18.988;2022-09-01T09:32:05;98482.78;;;62.71;5.69
20350;BME280;10332;50.208;18.988;2022-09-01T09:34:49;98476.94;;;62.61;5.84
20350;BME280;10332;50.208;18.988;2022-09-01T09:37:27;98479.47;;;63.97;5.84
20350;BME280;10332;50.208;18.988;2022-09-01T09:43:02;98478.78;;;65.85;4.71
20350;BME280;10332;50.208;18.988;2022-09-01T09:45:38;98474.25;;;66.73;4.65
20350;BME280;10332;50.208;18.988;2022-09-01T09:48:28;98474.66;;;68.35;4.31
20350;BME280;10332;50.208;18.988;2022-09-01T09:51:24;98448.94;;;65.58;4.64
20350;BME280;10332;50.208;18.988;2022-09-01T09:54:23;98461.53;;;66.93;3.96
20350;BME280;10332;50.208;18.988;2022-09-01T10:02:41;98457.25;;;66.33;4.60
20350;BME280;10332;50.208;18.988;2022-09-01T10:07:56;98447.09;;;68.47;3.87
20350;BME280;10332;50.208;18.988;2022-09-01T10:10:46;98415.47;;;62.75;5.55
20350;BME280;10332;50.208;18.988;2022-09-01T10:13:27;98398.78;;;53.68;8.41
20350;BME280;10332;50.208;18.988;2022-09-01T10:16:08;98402.09;;;59.41;6.75
20350;BME280;10332;50.208;18.988;2022-09-01T10:18:41;98431.41;;;64.85;5.09
20350;BME280;10332;50.208;18.988;2022-09-01T10:21:41;98394.63;;;56.36;7.55
20350;BME280;10332;50.208;18.988;2022-09-01T10:24:32;98373.59;;;50.28;9.86
20350;BME280;10332;50.208;18.988;2022-09-01T10:27:16;98392.56;;;60.12;6.20
20350;BME280;10332;50.208;18.988;2022-09-01T10:30:02;98422.56;;;65.67;4.67
20350;BME280;10332;50.208;18.988;2022-09-01T10:32:58;98397.91;;;60.77;5.79
20350;BME280;10332;50.208;18.988;2022-09-01T10:35:43;98378.59;;;51.24;9.63
20350;BME280;10332;50.208;18.988;2022-09-01T10:38:25;98379.78;;;46.58;11.34
20350;BME280;10332;50.208;18.988;2022-09-01T10:40:58;98370.56;;;43.81;13.28
20350;BME280;10332;50.208;18.988;2022-09-01T10:43:43;98371.53;;;41.48;14.54
20350;BME280;10332;50.208;18.988;2022-09-01T10:51:59;98386.41;;;48.40;10.76
20350;BME280;10332;50.208;18.988;2022-09-01T10:59:44;98396.22;;;59.59;5.92
20350;BME280;10332;50.208;18.988;2022-09-01T11:02:23;98382.09;;;50.51;9.44
20350;BME280;10332;50.208;18.988;2022-09-01T11:07:32;98367.78;;;41.44;14.49
20350;BME280;10332;50.208;18.988;2022-09-01T11:10:41;98365.31;;;40.19;15.32
20350;BME280;10332;50.208;18.988;2022-09-01T11:13:49;98371.19;;;38.95;16.31
20350;BME280;10332;50.208;18.988;2022-09-01T11:20:21;98365.09;;;46.28;12.10
20350;BME280;10332;50.208;18.988;2022-09-01T11:22:32;98375.09;;;55.02;8.24
20350;BME280;10332;50.208;18.988;2022-09-01T11:34:09;98377.75;;;47.39;11.29
20350;BME280;10332;50.208;18.988;2022-09-01T11:47:34;98357.91;;;35.96;19.42
20350;BME280;10332;50.208;18.988;2022-09-01T11:50:25;98357.44;;;34.64;20.12
20350;BME280;10332;50.208;18.988;2022-09-01T11:53:14;98365.59;;;33.70;20.88
20350;BME280;10332;50.208;18.988;2022-09-01T11:55:52;98356.97;;;33.40;21.40
20350;BME280;10332;50.208;18.988;2022-09-01T12:01:36;98359.22;;;32.34;22.86
20350;BME280;10332;50.208;18.988;2022-09-01T12:04:24;98347.84;;;31.97;22.75
20350;BME280;10332;50.208;18.988;2022-09-01T12:07:45;98350.63;;;32.25;23.05
20350;BME280;10332;50.208;18.988;2022-09-01T12:10:33;98356.22;;;42.89;15.70
20350;BME280;10332;50.208;18.988;2022-09-01T12:13:11;98361.72;;;47.44;12.99
20350;BME280;10332;50.208;18.988;2022-09-01T12:15:41;98360.94;;;43.25;13.99
20350;BME280;10332;50.208;18.988;2022-09-01T12:18:44;98351.19;;;39.04;16.55
20350;BME280;10332;50.208;18.988;2022-09-01T12:21:28;98344.28;;;37.47;17.86
20350;BME280;10332;50.208;18.988;2022-09-01T12:24:21;98357.97;;;36.11;18.65
20350;BME280;10332;50.208;18.988;2022-09-01T12:26:53;98352.06;;;35.18;19.62
20350;BME280;10332;50.208;18.988;2022-09-01T12:29:22;98346.59;;;34.64;20.26
20350;BME280;10332;50.208;18.988;2022-09-01T12:31:51;98344.09;;;34.19;20.68
20350;BME280;10332;50.208;18.988;2022-09-01T12:34:57;98345.31;;;33.73;20.76
20350;BME280;10332;50.208;18.988;2022-09-01T12:37:26;98345.69;;;34.81;20.21
20350;BME280;10332;50.208;18.988;2022-09-01T12:39:57;98340.59;;;35.11;19.88
20350;BME280;10332;50.208;18.988;2022-09-01T12:42:32;98341.38;;;33.97;20.66
20350;BME280;10332;50.208;18.988;2022-09-01T12:45:10;98336.88;;;32.79;21.65
20350;BME280;10332;50.208;18.988;2022-09-01T12:55:23;98349.41;;;30.97;23.77
20350;BME280;10332;50.208;18.988;2022-09-01T12:58:11;98348.97;;;30.34;24.96
20350;BME280;10332;50.208;18.988;2022-09-01T13:01:05;98342.63;;;29.85;25.51
20350;BME280;10332;50.208;18.988;2022-09-01T13:04:10;98336.44;;;29.59;25.41
20350;BME280;10332;50.208;18.988;2022-09-01T13:06:38;98340.81;;;29.54;25.67
20350;BME280;10332;50.208;18.988;2022-09-01T13:09:05;98343.34;;;29.49;26.13
20350;BME280;10332;50.208;18.988;2022-09-01T13:11:33;98347.56;;;29.63;25.75
20350;BME280;10332;50.208;18.988;2022-09-01T13:14:20;98344.47;;;29.66;26.10
20350;BME280;10332;50.208;18.988;2022-09-01T13:16:51;98335.16;;;30.60;24.73
20350;BME280;10332;50.208;18.988;2022-09-01T13:19:18;98333.91;;;35.51;20.19
20350;BME280;10332;50.208;18.988;2022-09-01T13:21:54;98340.38;;;41.44;15.33
20350;BME280;10332;50.208;18.988;2022-09-01T13:24:22;98349.09;;;45.49;13.19
20350;BME280;10332;50.208;18.988;2022-09-01T13:26:56;98347.56;;;43.32;14.27
20350;BME280;10332;50.208;18.988;2022-09-01T13:29:43;98349.19;;;39.54;16.04
20350;BME280;10332;50.208;18.988;2022-09-01T13:32:13;98349.72;;;37.72;17.35
20350;BME280;10332;50.208;18.988;2022-09-01T13:34:48;98346.47;;;36.42;17.73
20350;BME280;10332;50.208;18.988;2022-09-01T13:37:19;98349.97;;;43.11;13.83
20350;BME280;10332;50.208;18.988;2022-09-01T13:39:47;98355.13;;;46.36;12.01
20350;BME280;10332;50.208;18.988;2022-09-01T13:42:16;98361.56;;;48.56;10.99
20350;BME280;10332;50.208;18.988;2022-09-01T13:44:44;98361.31;;;48.12;10.83
20350;BME280;10332;50.208;18.988;2022-09-01T13:47:18;98349.72;;;42.03;13.45
20350;BME280;10332;50.208;18.988;2022-09-01T13:50:07;98353.72;;;38.31;16.12
20350;BME280;10332;50.208;18.988;2022-09-01T13:52:51;98346.31;;;36.21;17.78
20350;BME280;10332;50.208;18.988;2022-09-01T13:55:30;98346.38;;;38.16;16.36
20350;BME280;10332;50.208;18.988;2022-09-01T13:57:57;98350.66;;;42.67;14.05
20350;BME280;10332;50.208;18.988;2022-09-01T14:00:34;98357.84;;;46.83;11.93
20350;BME280;10332;50.208;18.988;2022-09-01T14:03:10;98355.44;;;45.15;11.78
20350;BME280;10332;50.208;18.988;2022-09-01T14:05:42;98344.56;;;40.79;14.64
20350;BME280;10332;50.208;18.988;2022-09-01T14:08:12;98346.38;;;38.21;15.81
20350;BME280;10332;50.208;18.988;2022-09-01T14:10:44;98343.69;;;38.01;16.09
20350;BME280;10332;50.208;18.988;2022-09-01T14:13:13;98347.03;;;42.44;14.08
20350;BME280;10332;50.208;18.988;2022-09-01T14:15:42;98350.28;;;42.18;14.46
20350;BME280;10332;50.208;18.988;2022-09-01T14:18:11;98343.47;;;40.14;14.65
20350;BME280;10332;50.208;18.988;2022-09-01T14:20:45;98351.38;;;43.45;13.03
20350;BME280;10332;50.208;18.988;2022-09-01T14:23:14;98347.13;;;45.58;11.84
20350;BME280;10332;50.208;18.988;2022-09-01T14:25:49;98352.63;;;46.81;10.99
20350;BME280;10332;50.208;18.988;2022-09-01T14:28:19;98344.94;;;47.62;10.53
20350;BME280;10332;50.208;18.988;2022-09-01T14:30:49;98342.28;;;46.40;10.68
20350;BME280;10332;50.208;18.988;2022-09-01T14:33:17;98341.69;;;43.47;12.18
20350;BME280;10332;50.208;18.988;2022-09-01T14:35:46;98342.69;;;41.50;13.15
20350;BME280;10332;50.208;18.988;2022-09-01T14:38:14;98344.31;;;39.51;14.47